Time;durP1;ratioP1;P1;durP2;ratioP2;P2;SDS_P1;SDS_P2;PMS_P1;PMS_P2;Temp;Humidity;BMP_temperature;BMP_pressure;BME280_temperature;BME280_humidity;BME280_pressure;Samples;Min_cycle;Max_cycle;Signal;HPM_P1;HPM_P2
2023/04/10 00:02:08;;;;;;;;;;;;;;;14.35;64.60;101078.53;7349509;19;19953;-65
2023/04/10 00:04:36;;;;;;;;;;;;;;;14.32;64.69;101078.91;7348682;19;20636;-66
2023/04/10 00:07:03;;;;;;;;;;;;;;;14.32;64.52;101073.59;7347402;19;19944;-65
2023/04/10 00:09:30;;;;;;;;;;;;;;;14.30;64.84;101065.00;7350669;19;20292;-65
2023/04/10 00:11:57;;;;;;;;;;;;;;;14.29;65.39;101061.53;7350071;19;20435;-65
2023/04/10 00:14:24;;;;;;;;;;;;;;;14.30;65.22;101047.28;7350233;19;20257;-67
2023/04/10 00:16:51;;;;;;;;;;;;;;;14.30;65.64;101051.75;7351620;19;19919;-65
2023/04/10 00:19:18;;;;;;;;;;;;;;;14.31;65.88;101042.81;7354789;19;19949;-65
2023/04/10 00:21:45;;;;;;;;;;;;;;;14.32;66.12;101041.84;7360153;19;20431;-65
2023/04/10 00:24:12;;;;;;;;;;;;;;;14.32;66.30;101050.59;7359093;19;19951;-65
2023/04/10 00:26:39;;;;;;;;;;;;;;;14.34;66.85;101042.47;7352198;19;19922;-66
2023/04/10 00:29:07;;;;;;;;;;;;;;;14.35;66.70;101038.84;7357617;19;20345;-66
2023/04/10 00:31:34;;;;;;;;;;;;;;;14.34;67.40;101035.38;7353820;19;19926;-65
2023/04/10 00:34:01;;;;;;;;;;;;;;;14.38;67.88;101041.16;7358838;19;20471;-67
2023/04/10 00:36:28;;;;;;;;;;;;;;;14.39;67.23;101053.41;7355038;19;19923;-65
2023/04/10 00:38:55;;;;;;;;;;;;;;;14.40;67.32;101047.13;7358157;19;19918;-65
2023/04/10 00:41:22;;;;;;;;;;;;;;;14.40;67.21;101045.31;7355936;19;19938;-66
2023/04/10 00:43:54;;;;;;;;;;;;;;;14.41;67.24;101049.59;7354003;19;20310;-65
2023/04/10 00:46:21;;;;;;;;;;;;;;;14.43;67.64;101037.00;7354325;19;20502;-65
2023/04/10 00:48:49;;;;;;;;;;;;;;;14.47;68.48;101032.22;7353199;19;20337;-65
2023/04/10 00:51:19;;;;;;;;;;;;;;;14.48;68.34;101034.66;7355368;19;19915;-66
2023/04/10 00:53:47;;;;;;;;;;;;;;;14.46;67.68;101020.78;7353151;19;19930;-66
2023/04/10 00:56:14;;;;;;;;;;;;;;;14.48;68.39;101010.00;7354726;19;19919;-66
2023/04/10 00:58:41;;;;;;;;;;;;;;;14.49;68.23;101012.47;7357531;19;20411;-65
2023/04/10 01:01:08;;;;;;;;;;;;;;;14.46;67.97;101002.25;7354928;19;19947;-65
2023/04/10 01:03:36;;;;;;;;;;;;;;;14.48;68.79;101007.34;7354123;19;19923;-65
2023/04/10 01:06:11;;;;;;;;;;;;;;;14.49;68.33;101001.06;7354309;19;19929;-65
2023/04/10 01:08:41;;;;;;;;;;;;;;;14.49;68.67;100998.41;7351255;19;19922;-65
2023/04/10 01:11:11;;;;;;;;;;;;;;;14.50;68.30;100997.44;7352089;19;19930;-64
2023/04/10 01:13:42;;;;;;;;;;;;;;;14.49;68.68;101001.06;7356875;19;20546;-65
2023/04/10 01:16:15;;;;;;;;;;;;;;;14.49;69.13;100983.34;7350290;19;19915;-65
2023/04/10 01:18:45;;;;;;;;;;;;;;;14.51;68.66;100989.31;7352734;19;19915;-65
2023/04/10 01:21:13;;;;;;;;;;;;;;;14.52;69.31;100985.69;7356967;19;19947;-65
2023/04/10 01:23:41;;;;;;;;;;;;;;;14.52;69.32;100987.50;7355763;19;20328;-65
2023/04/10 01:26:09;;;;;;;;;;;;;;;14.51;69.30;100986.66;7354385;19;19918;-66
2023/04/10 01:28:39;;;;;;;;;;;;;;;14.51;70.02;100976.06;7351422;19;19923;-65
2023/04/10 01:31:07;;;;;;;;;;;;;;;14.50;70.17;100970.94;7354713;19;19915;-65
2023/04/10 01:33:38;;;;;;;;;;;;;;;14.50;69.81;100973.59;7355580;19;20023;-67
2023/04/10 01:36:06;;;;;;;;;;;;;;;14.52;70.41;100969.78;7348725;19;19942;-68
2023/04/10 01:38:35;;;;;;;;;;;;;;;14.54;70.78;100969.59;7355032;19;19914;-66
2023/04/10 01:41:02;;;;;;;;;;;;;;;14.53;70.35;100973.22;7353637;19;19923;-66
2023/04/10 01:43:30;;;;;;;;;;;;;;;14.54;70.73;100970.41;7351407;19;19919;-66
2023/04/10 01:45:58;;;;;;;;;;;;;;;14.53;70.82;100973.22;7352127;19;19923;-65
2023/04/10 01:48:25;;;;;;;;;;;;;;;14.51;70.54;100969.94;7349514;19;19925;-65
2023/04/10 01:50:53;;;;;;;;;;;;;;;14.51;70.57;100967.31;7355526;19;19939;-66
2023/04/10 01:53:20;;;;;;;;;;;;;;;14.51;71.14;100970.78;7352920;19;19922;-66
2023/04/10 01:55:47;;;;;;;;;;;;;;;14.49;71.06;100964.81;7350537;19;19962;-66
2023/04/10 01:58:14;;;;;;;;;;;;;;;14.49;72.32;100950.75;7355827;19;20532;-66
2023/04/10 02:00:42;;;;;;;;;;;;;;;14.48;72.37;100949.94;7351532;19;21569;-66
2023/04/10 02:03:09;;;;;;;;;;;;;;;14.49;73.56;100950.75;7351070;19;19915;-66
2023/04/10 02:05:45;;;;;;;;;;;;;;;14.48;74.61;100949.94;7350913;19;20277;-64
2023/04/10 02:08:17;;;;;;;;;;;;;;;14.50;75.92;100945.28;7353159;19;19930;-66
2023/04/10 02:10:46;;;;;;;;;;;;;;;14.50;76.41;100947.94;7353700;19;19919;-65
2023/04/10 02:13:15;;;;;;;;;;;;;;;14.48;76.81;100944.63;7357377;19;19923;-65
2023/04/10 02:15:45;;;;;;;;;;;;;;;14.49;77.32;100953.41;7350910;19;20360;-65
2023/04/10 02:18:15;;;;;;;;;;;;;;;14.46;78.04;100945.81;7351412;19;19927;-67
2023/04/10 02:20:42;;;;;;;;;;;;;;;14.43;78.20;100935.56;7354319;19;19926;-65
2023/04/10 02:23:09;;;;;;;;;;;;;;;14.42;79.45;100937.41;7355059;19;19920;-66
2023/04/10 02:25:36;;;;;;;;;;;;;;;14.38;79.71;100933.44;7350851;19;19939;-64
2023/04/10 02:28:04;;;;;;;;;;;;;;;14.35;80.25;100930.31;7351042;19;19919;-65
2023/04/10 02:30:32;;;;;;;;;;;;;;;14.29;81.46;100926.53;7353963;19;19941;-66
2023/04/10 02:32:59;;;;;;;;;;;;;;;14.29;82.69;100933.63;7352759;19;19915;-65
2023/04/10 02:35:28;;;;;;;;;;;;;;;14.23;82.14;100929.03;7350412;19;19927;-65
2023/04/10 02:37:55;;;;;;;;;;;;;;;14.20;82.70;100924.94;7349741;19;19926;-65
2023/04/10 02:40:22;;;;;;;;;;;;;;;14.17;83.24;100919.97;7350558;19;19933;-66
2023/04/10 02:42:49;;;;;;;;;;;;;;;14.13;83.68;100921.31;7354064;19;20244;-68
2023/04/10 02:45:16;;;;;;;;;;;;;;;14.09;84.35;100912.09;7344928;19;19919;-66
2023/04/10 02:47:43;;;;;;;;;;;;;;;14.07;85.09;100906.94;7347340;19;19919;-65
2023/04/10 02:50:10;;;;;;;;;;;;;;;14.07;85.83;100909.59;7351474;19;19922;-65
2023/04/10 02:52:37;;;;;;;;;;;;;;;14.02;85.10;100905.81;7352581;19;19943;-65
2023/04/10 02:55:05;;;;;;;;;;;;;;;14.00;85.74;100907.84;7352475;19;19915;-66
2023/04/10 02:57:33;;;;;;;;;;;;;;;13.98;86.13;100899.22;7348001;19;20468;-65
2023/04/10 03:00:01;;;;;;;;;;;;;;;13.98;86.93;100893.94;7355982;19;19911;-65
2023/04/10 03:02:28;;;;;;;;;;;;;;;13.95;86.88;100895.13;7353317;19;21250;-65
2023/04/10 03:04:55;;;;;;;;;;;;;;;13.92;87.14;100895.47;7353892;19;20612;-66
2023/04/10 03:07:22;;;;;;;;;;;;;;;13.88;87.25;100899.44;7354576;19;19939;-65
2023/04/10 03:09:50;;;;;;;;;;;;;;;13.86;87.47;100900.63;7352480;19;20035;-65
2023/04/10 03:12:17;;;;;;;;;;;;;;;13.83;87.63;100893.84;7353560;19;20333;-65
2023/04/10 03:14:44;;;;;;;;;;;;;;;13.79;87.98;100889.91;7350096;19;19918;-65
2023/04/10 03:17:12;;;;;;;;;;;;;;;13.77;89.00;100889.25;7349002;19;19922;-64
2023/04/10 03:19:39;;;;;;;;;;;;;;;13.78;89.43;100884.78;7354728;19;19907;-66
2023/04/10 03:22:06;;;;;;;;;;;;;;;13.77;90.04;100893.72;7353394;19;19942;-67
2023/04/10 03:24:33;;;;;;;;;;;;;;;13.74;90.05;100891.41;7351932;19;21595;-66
2023/04/10 03:27:00;;;;;;;;;;;;;;;13.74;90.68;100886.94;7349444;19;19915;-65
2023/04/10 03:29:27;;;;;;;;;;;;;;;13.75;90.99;100882.50;7351095;19;19939;-67
2023/04/10 03:31:56;;;;;;;;;;;;;;;13.72;92.00;100873.06;7351694;19;19962;-65
2023/04/10 03:34:23;;;;;;;;;;;;;;;13.69;92.34;100865.50;7348889;19;19919;-66
2023/04/10 03:36:50;;;;;;;;;;;;;;;13.65;92.99;100866.84;7349288;19;20600;-65
2023/04/10 03:39:17;;;;;;;;;;;;;;;13.62;93.59;100867.16;7353088;19;19930;-64
2023/04/10 03:41:44;;;;;;;;;;;;;;;13.61;94.41;100865.53;7348597;19;20514;-63
2023/04/10 03:44:11;;;;;;;;;;;;;;;13.60;94.84;100858.59;7349978;19;19934;-64
2023/04/10 03:46:38;;;;;;;;;;;;;;;13.54;94.94;100849.53;7345262;19;20475;-66
2023/04/10 03:49:05;;;;;;;;;;;;;;;13.51;95.02;100855.13;7351674;19;21101;-65
2023/04/10 03:51:32;;;;;;;;;;;;;;;13.50;96.20;100848.22;7357040;19;19921;-65
2023/04/10 03:53:59;;;;;;;;;;;;;;;13.49;96.19;100849.22;7358376;19;19921;-65
2023/04/10 03:56:26;;;;;;;;;;;;;;;13.47;96.80;100842.44;7355975;19;19922;-65
2023/04/10 03:58:52;;;;;;;;;;;;;;;13.44;96.95;100837.50;7361373;19;19947;-65
2023/04/10 04:01:20;;;;;;;;;;;;;;;13.41;97.44;100819.34;7358957;19;20352;-65
2023/04/10 04:03:48;;;;;;;;;;;;;;;13.37;97.55;100824.13;7356405;19;19955;-65
2023/04/10 04:06:15;;;;;;;;;;;;;;;13.32;97.21;100823.81;7354382;19;20598;-64
2023/04/10 04:08:42;;;;;;;;;;;;;;;13.30;97.79;100825.84;7355795;19;19918;-64
2023/04/10 04:11:09;;;;;;;;;;;;;;;13.28;97.91;100812.78;7359229;19;19923;-65
2023/04/10 04:13:36;;;;;;;;;;;;;;;13.28;98.19;100809.31;7359388;19;20353;-65
2023/04/10 04:16:03;;;;;;;;;;;;;;;13.28;98.64;100810.13;7357260;19;19922;-65
2023/04/10 04:18:30;;;;;;;;;;;;;;;13.26;98.24;100814.75;7354191;19;19919;-65
2023/04/10 04:20:57;;;;;;;;;;;;;;;13.26;98.53;100819.22;7357555;19;19925;-65
2023/04/10 04:23:24;;;;;;;;;;;;;;;13.24;98.69;100816.78;7359550;19;19939;-65
2023/04/10 04:25:53;;;;;;;;;;;;;;;13.25;98.89;100817.59;7358288;19;19922;-65
2023/04/10 04:28:20;;;;;;;;;;;;;;;13.26;99.26;100808.66;7356222;19;19927;-65
2023/04/10 04:30:47;;;;;;;;;;;;;;;13.25;99.19;100810.50;7357971;19;20384;-65
2023/04/10 04:33:14;;;;;;;;;;;;;;;13.25;99.15;100809.66;7355330;19;19926;-66
2023/04/10 04:35:41;;;;;;;;;;;;;;;13.24;98.97;100811.47;7353138;19;19923;-70
2023/04/10 04:38:07;;;;;;;;;;;;;;;13.22;99.07;100808.19;7354593;19;20737;-66
2023/04/10 04:40:35;;;;;;;;;;;;;;;13.18;98.93;100803.41;7355846;19;20123;-66
2023/04/10 04:43:02;;;;;;;;;;;;;;;13.16;99.29;100803.56;7356341;19;19915;-65
2023/04/10 04:45:29;;;;;;;;;;;;;;;13.19;99.66;100789.22;7353984;19;19926;-65
2023/04/10 04:47:56;;;;;;;;;;;;;;;13.18;99.83;100793.66;7349466;19;19919;-65
2023/04/10 04:50:24;;;;;;;;;;;;;;;13.17;100.00;100783.25;7358733;19;19930;-65
2023/04/10 04:52:50;;;;;;;;;;;;;;;13.16;100.00;100786.88;7359076;19;19926;-65
2023/04/10 04:55:17;;;;;;;;;;;;;;;13.17;100.00;100791.19;7354126;19;19927;-66
2023/04/10 04:57:44;;;;;;;;;;;;;;;13.13;100.00;100779.31;7351440;19;20249;-64
2023/04/10 05:00:11;;;;;;;;;;;;;;;13.14;100.00;100778.31;7356308;19;19923;-62
2023/04/10 05:02:38;;;;;;;;;;;;;;;13.10;100.00;100775.19;7354107;19;19954;-62
2023/04/10 05:05:06;;;;;;;;;;;;;;;13.12;100.00;100773.19;7354293;19;19923;-63
2023/04/10 05:07:33;;;;;;;;;;;;;;;13.11;100.00;100766.25;7352777;19;19915;-63
2023/04/10 05:10:00;;;;;;;;;;;;;;;13.12;100.00;100775.84;7360393;19;19951;-63
2023/04/10 05:12:27;;;;;;;;;;;;;;;13.10;100.00;100777.81;7358025;19;19947;-63
2023/04/10 05:14:54;;;;;;;;;;;;;;;13.10;100.00;100771.72;7356667;19;19972;-63
2023/04/10 05:17:21;;;;;;;;;;;;;;;13.08;100.00;100774.50;7350056;19;19945;-64
2023/04/10 05:19:48;;;;;;;;;;;;;;;13.06;100.00;100762.44;7354058;19;20419;-64
2023/04/10 05:22:15;;;;;;;;;;;;;;;13.05;100.00;100768.75;7359384;19;20764;-62
2023/04/10 05:24:44;;;;;;;;;;;;;;;13.07;100.00;100762.28;7352571;19;20601;-63
2023/04/10 05:27:11;;;;;;;;;;;;;;;13.09;100.00;100755.03;7353341;19;20176;-65
2023/04/10 05:29:38;;;;;;;;;;;;;;;13.09;100.00;100746.28;7356363;19;19919;-63
2023/04/10 05:32:05;;;;;;;;;;;;;;;13.11;100.00;100741.63;7356466;19;20005;-65
2023/04/10 05:34:32;;;;;;;;;;;;;;;13.11;100.00;100736.34;7350811;19;20369;-63
2023/04/10 05:36:59;;;;;;;;;;;;;;;13.14;100.00;100734.25;7353695;19;19970;-64
2023/04/10 05:39:26;;;;;;;;;;;;;;;13.16;100.00;100729.59;7353687;19;19943;-63
2023/04/10 05:41:53;;;;;;;;;;;;;;;13.17;100.00;100735.69;7355590;19;19915;-62
2023/04/10 05:44:20;;;;;;;;;;;;;;;13.15;100.00;100732.44;7355412;19;19911;-64
2023/04/10 05:46:47;;;;;;;;;;;;;;;13.15;100.00;100721.84;7351149;19;19933;-64
2023/04/10 05:49:14;;;;;;;;;;;;;;;13.15;100.00;100712.13;7351294;19;20396;-63
2023/04/10 05:51:41;;;;;;;;;;;;;;;13.17;100.00;100714.56;7354527;19;19926;-63
2023/04/10 05:54:08;;;;;;;;;;;;;;;13.18;100.00;100708.28;7356448;19;20241;-63
2023/04/10 05:56:35;;;;;;;;;;;;;;;13.18;100.00;100706.47;7353230;19;20256;-64
2023/04/10 05:59:02;;;;;;;;;;;;;;;13.18;100.00;100693.25;7354755;19;20453;-63
2023/04/10 06:01:29;;;;;;;;;;;;;;;13.19;100.00;100699.38;7351192;19;20763;-63
2023/04/10 06:03:56;;;;;;;;;;;;;;;13.18;100.00;100695.09;7354302;19;20011;-63
2023/04/10 06:06:25;;;;;;;;;;;;;;;13.18;100.00;100693.25;7354030;19;20022;-63
2023/04/10 06:08:52;;;;;;;;;;;;;;;13.19;100.00;100687.00;7356252;19;20353;-62
2023/04/10 06:11:19;;;;;;;;;;;;;;;13.15;100.00;100688.34;7358551;19;19934;-63
2023/04/10 06:13:46;;;;;;;;;;;;;;;13.16;100.00;100681.22;7350013;19;19990;-63
2023/04/10 06:16:14;;;;;;;;;;;;;;;13.17;100.00;100675.75;7350968;19;20153;-63
2023/04/10 06:18:41;;;;;;;;;;;;;;;13.14;100.00;100670.84;7348930;19;20349;-64
2023/04/10 06:21:08;;;;;;;;;;;;;;;13.18;100.00;100668.66;7353999;19;19926;-64
2023/04/10 06:23:36;;;;;;;;;;;;;;;13.20;100.00;100661.41;7354598;19;19943;-63
2023/04/10 06:26:03;;;;;;;;;;;;;;;13.22;100.00;100659.38;7350722;19;19919;-63
2023/04/10 06:28:30;;;;;;;;;;;;;;;13.24;100.00;100652.94;7352488;19;20703;-63
2023/04/10 06:30:57;;;;;;;;;;;;;;;13.25;100.00;100646.66;7353672;19;19925;-62
2023/04/10 06:33:24;;;;;;;;;;;;;;;13.26;100.00;100658.03;7353004;19;19923;-65
2023/04/10 06:35:51;;;;;;;;;;;;;;;13.26;100.00;100650.94;7351023;19;19919;-63
2023/04/10 06:38:18;;;;;;;;;;;;;;;13.29;100.00;100663.00;7351437;19;19978;-63
2023/04/10 06:40:45;;;;;;;;;;;;;;;13.27;100.00;100662.31;7355547;19;19919;-63
2023/04/10 06:43:12;;;;;;;;;;;;;;;13.26;100.00;100663.31;7351962;19;20320;-63
2023/04/10 06:45:39;;;;;;;;;;;;;;;13.29;100.00;100657.69;7351655;19;19923;-63
2023/04/10 06:48:07;;;;;;;;;;;;;;;13.32;100.00;100654.69;7346606;19;19934;-64
2023/04/10 06:50:34;;;;;;;;;;;;;;;13.33;100.00;100653.72;7351628;19;19919;-63
2023/04/10 06:53:01;;;;;;;;;;;;;;;13.34;100.00;100658.00;7352324;19;19919;-63
2023/04/10 06:55:28;;;;;;;;;;;;;;;13.37;100.00;100659.44;7352490;19;19926;-63
2023/04/10 06:57:55;;;;;;;;;;;;;;;13.38;100.00;100647.91;7350127;19;19922;-62
2023/04/10 07:00:22;;;;;;;;;;;;;;;13.43;100.00;100648.19;7353633;19;19929;-63
2023/04/10 07:02:49;;;;;;;;;;;;;;;13.42;100.00;100635.97;7351118;19;20250;-67
2023/04/10 07:05:16;;;;;;;;;;;;;;;13.45;100.00;100633.00;7348715;19;19922;-63
2023/04/10 07:07:46;;;;;;;;;;;;;;;13.47;100.00;100623.88;7350077;19;19919;-63
2023/04/10 07:10:13;;;;;;;;;;;;;;;13.51;100.00;100633.09;7351888;19;19918;-63
2023/04/10 07:12:40;;;;;;;;;;;;;;;13.52;100.00;100632.09;7352903;19;19933;-63
2023/04/10 07:15:07;;;;;;;;;;;;;;;13.53;100.00;100632.91;7351248;19;20400;-63
2023/04/10 07:17:34;;;;;;;;;;;;;;;13.52;100.00;100623.34;7350049;19;20297;-63
2023/04/10 07:20:02;;;;;;;;;;;;;;;13.52;100.00;100618.88;7352834;19;19939;-63
2023/04/10 07:22:29;;;;;;;;;;;;;;;13.52;100.00;100616.22;7351638;19;19929;-63
2023/04/10 07:24:57;;;;;;;;;;;;;;;13.50;100.00;100618.25;7353115;19;19923;-61
2023/04/10 07:27:24;;;;;;;;;;;;;;;13.51;100.00;100608.50;7355751;19;19931;-63
2023/04/10 07:29:53;;;;;;;;;;;;;;;13.49;100.00;100610.47;7360291;19;19930;-63
2023/04/10 07:32:20;;;;;;;;;;;;;;;13.48;100.00;100600.91;7354369;19;19918;-63
2023/04/10 07:34:48;;;;;;;;;;;;;;;13.45;99.59;100610.03;7359555;19;19927;-63
2023/04/10 07:37:16;;;;;;;;;;;;;;;13.46;99.41;100597.63;7355066;19;19926;-62
2023/04/10 07:39:44;;;;;;;;;;;;;;;13.43;98.82;100593.50;7358254;19;19923;-64
2023/04/10 07:42:11;;;;;;;;;;;;;;;13.43;99.04;100593.50;7358761;19;19922;-62
2023/04/10 07:44:38;;;;;;;;;;;;;;;13.40;98.80;100590.41;7360048;19;19929;-63
2023/04/10 07:47:05;;;;;;;;;;;;;;;13.36;98.68;100584.63;7355183;19;19919;-62
2023/04/10 07:49:32;;;;;;;;;;;;;;;13.31;98.25;100570.34;7353894;19;19922;-63
2023/04/10 07:51:59;;;;;;;;;;;;;;;13.32;98.97;100571.94;7357443;19;19947;-62
2023/04/10 07:54:26;;;;;;;;;;;;;;;13.30;98.66;100560.75;7357746;19;19919;-62
2023/04/10 07:56:53;;;;;;;;;;;;;;;13.27;99.53;100570.66;7359206;19;19919;-64
2023/04/10 07:59:20;;;;;;;;;;;;;;;13.27;99.47;100561.91;7360009;19;19927;-63
2023/04/10 08:01:47;;;;;;;;;;;;;;;13.26;99.60;100554.97;7360300;19;20506;-63
2023/04/10 08:04:14;;;;;;;;;;;;;;;13.26;100.00;100544.41;7354378;19;20253;-65
2023/04/10 08:06:41;;;;;;;;;;;;;;;13.29;100.00;100552.00;7358691;19;19925;-63
2023/04/10 08:09:08;;;;;;;;;;;;;;;13.32;100.00;100545.53;7357236;19;19915;-64
2023/04/10 08:11:35;;;;;;;;;;;;;;;13.35;100.00;100530.16;7357261;19;19954;-64
2023/04/10 08:14:05;;;;;;;;;;;;;;;13.36;100.00;100536.28;7353179;19;19918;-63
2023/04/10 08:16:34;;;;;;;;;;;;;;;13.35;100.00;100526.69;7353150;19;19914;-63
2023/04/10 08:19:01;;;;;;;;;;;;;;;13.36;100.00;100523.84;7352575;19;19919;-63
2023/04/10 08:21:29;;;;;;;;;;;;;;;13.40;100.00;100519.88;7353671;19;20196;-63
2023/04/10 08:23:56;;;;;;;;;;;;;;;13.42;100.00;100509.09;7357890;19;19922;-62
2023/04/10 08:26:25;;;;;;;;;;;;;;;13.43;100.00;100505.47;7355213;19;19922;-64
2023/04/10 08:28:53;;;;;;;;;;;;;;;13.46;100.00;100500.63;7358719;19;19919;-63
2023/04/10 08:31:20;;;;;;;;;;;;;;;13.46;100.00;100503.28;7355470;19;19934;-62
2023/04/10 08:33:48;;;;;;;;;;;;;;;13.48;100.00;100498.66;7356971;19;20414;-62
2023/04/10 08:36:15;;;;;;;;;;;;;;;13.49;100.00;100502.94;7350794;19;20001;-63
2023/04/10 08:38:46;;;;;;;;;;;;;;;13.51;100.00;100498.28;7356820;19;19936;-64
2023/04/10 08:41:14;;;;;;;;;;;;;;;13.53;100.00;100493.63;7352864;19;19915;-64
2023/04/10 08:43:42;;;;;;;;;;;;;;;13.54;100.00;100484.72;7356794;19;20345;-65
2023/04/10 08:46:10;;;;;;;;;;;;;;;13.56;100.00;100476.63;7351852;19;20507;-63
2023/04/10 08:48:39;;;;;;;;;;;;;;;13.58;100.00;100477.22;7354566;19;21598;-63
2023/04/10 08:51:08;;;;;;;;;;;;;;;13.60;100.00;100470.78;7350240;19;19914;-64
2023/04/10 08:53:47;;;;;;;;;;;;;;;13.64;100.00;100464.13;7357339;19;20355;-64
2023/04/10 08:56:15;;;;;;;;;;;;;;;13.65;100.00;100457.84;7352452;19;20648;-65
2023/04/10 08:58:42;;;;;;;;;;;;;;;13.69;100.00;100459.09;7355350;19;19915;-63
2023/04/10 09:01:11;;;;;;;;;;;;;;;13.73;100.00;100448.16;7354500;19;20017;-62
2023/04/10 09:03:38;;;;;;;;;;;;;;;13.69;100.00;100448.53;7354309;19;19925;-63
2023/04/10 09:06:05;;;;;;;;;;;;;;;13.73;100.00;100445.50;7357396;19;19930;-64
2023/04/10 09:08:32;;;;;;;;;;;;;;;13.73;100.00;100441.03;7356626;19;21605;-63
2023/04/10 09:11:00;;;;;;;;;;;;;;;13.70;100.00;100442.25;7355610;19;19929;-63
2023/04/10 09:13:30;;;;;;;;;;;;;;;13.71;100.00;100435.94;7354064;19;19919;-63
2023/04/10 09:15:58;;;;;;;;;;;;;;;13.74;100.00;100436.56;7350351;19;20479;-64
2023/04/10 09:18:29;;;;;;;;;;;;;;;13.78;100.00;100435.19;7353583;19;20425;-62
2023/04/10 09:21:05;;;;;;;;;;;;;;;13.80;100.00;100428.75;7357769;19;20536;-63
2023/04/10 09:23:32;;;;;;;;;;;;;;;13.84;100.00;100437.94;7352872;19;19933;-63
2023/04/10 09:25:59;;;;;;;;;;;;;;;13.87;100.00;100432.28;7350444;19;20021;-64
2023/04/10 09:28:26;;;;;;;;;;;;;;;13.85;100.00;100434.31;7356539;19;20083;-63
2023/04/10 09:30:53;;;;;;;;;;;;;;;13.86;100.00;100421.91;7355820;19;20294;-63
2023/04/10 09:33:22;;;;;;;;;;;;;;;13.88;100.00;100419.88;7354357;19;19940;-63
2023/04/10 09:35:49;;;;;;;;;;;;;;;13.85;100.00;100421.06;7352199;19;19930;-63
2023/04/10 09:38:17;;;;;;;;;;;;;;;13.86;100.00;100413.97;7353079;19;19930;-63
2023/04/10 09:40:45;;;;;;;;;;;;;;;13.86;100.00;100422.72;7353194;19;19923;-62
2023/04/10 09:43:15;;;;;;;;;;;;;;;13.83;100.00;100423.06;7357108;19;20335;-62
2023/04/10 09:45:45;;;;;;;;;;;;;;;13.79;100.00;100421.81;7354376;19;19964;-62
2023/04/10 09:48:12;;;;;;;;;;;;;;;13.83;100.00;100409.03;7350470;19;19922;-63
2023/04/10 09:50:40;;;;;;;;;;;;;;;13.85;100.00;100409.69;7351792;19;19922;-63
2023/04/10 09:53:10;;;;;;;;;;;;;;;13.88;100.00;100406.66;7350249;19;19919;-61
2023/04/10 09:55:37;;;;;;;;;;;;;;;13.91;100.00;100407.13;7351570;19;20866;-64
2023/04/10 09:58:05;;;;;;;;;;;;;;;13.96;100.00;100406.56;7353435;19;20033;-64
2023/04/10 10:00:37;;;;;;;;;;;;;;;14.02;100.00;100409.28;7353687;19;19923;-62
2023/04/10 10:03:06;;;;;;;;;;;;;;;14.06;100.00;100409.75;7352443;19;19927;-64
2023/04/10 10:05:35;;;;;;;;;;;;;;;14.05;100.00;100416.84;7353096;19;19926;-66
2023/04/10 10:08:03;;;;;;;;;;;;;;;14.05;100.00;100400.16;7354530;19;19918;-64
2023/04/10 10:10:30;;;;;;;;;;;;;;;14.03;100.00;100397.69;7353114;19;19919;-62
2023/04/10 10:12:59;;;;;;;;;;;;;;;14.03;100.00;100383.63;7353222;19;20651;-63
2023/04/10 10:15:28;;;;;;;;;;;;;;;14.07;100.00;100382.25;7351415;19;19914;-63
2023/04/10 10:18:02;;;;;;;;;;;;;;;14.07;100.00;100385.72;7352241;19;19930;-66
2023/04/10 10:20:31;;;;;;;;;;;;;;;14.08;100.00;100384.72;7353728;19;19925;-64
2023/04/10 10:23:03;;;;;;;;;;;;;;;14.11;100.00;100383.53;7351935;19;19922;-63
2023/04/10 10:25:30;;;;;;;;;;;;;;;14.13;100.00;100386.81;7350525;19;19956;-64
2023/04/10 10:27:59;;;;;;;;;;;;;;;14.15;100.00;100376.88;7349099;19;19922;-63
2023/04/10 10:30:26;;;;;;;;;;;;;;;14.17;100.00;100374.84;7352101;19;19914;-65
2023/04/10 10:32:57;;;;;;;;;;;;;;;14.18;100.00;100367.72;7352557;19;19923;-63
2023/04/10 10:35:25;;;;;;;;;;;;;;;14.17;100.00;100368.75;7348643;19;20319;-63
2023/04/10 10:37:57;;;;;;;;;;;;;;;14.17;100.00;100329.06;7350172;19;20245;-64
2023/04/10 10:40:24;;;;;;;;;;;;;;;14.22;100.00;100334.59;7352852;19;19926;-63
2023/04/10 10:42:56;;;;;;;;;;;;;;;14.22;100.00;100342.53;7354869;19;19954;-63
2023/04/10 10:45:29;;;;;;;;;;;;;;;14.19;100.00;100338.44;7352176;19;20014;-63
2023/04/10 10:47:57;;;;;;;;;;;;;;;14.16;100.00;100338.81;7347721;19;20261;-63
2023/04/10 10:50:24;;;;;;;;;;;;;;;14.09;100.00;100340.56;7353783;19;19923;-63
2023/04/10 10:52:52;;;;;;;;;;;;;;;14.07;100.00;100335.44;7353037;19;21031;-63
2023/04/10 10:55:21;;;;;;;;;;;;;;;14.09;100.00;100338.75;7351570;19;20252;-63
2023/04/10 10:57:49;;;;;;;;;;;;;;;14.10;100.00;100327.16;7351435;19;19926;-63
2023/04/10 11:00:16;;;;;;;;;;;;;;;14.11;100.00;100331.44;7353555;19;19922;-63
2023/04/10 11:02:44;;;;;;;;;;;;;;;14.12;100.00;100317.19;7355052;19;19931;-62
2023/04/10 11:05:31;;;;;;;;;;;;;;;14.21;100.00;100311.78;7347519;19;20954;-63
2023/04/10 11:07:58;;;;;;;;;;;;;;;14.30;100.00;100302.72;7352716;19;19950;-65
2023/04/10 11:10:28;;;;;;;;;;;;;;;14.41;100.00;100305.69;7354994;19;20260;-62
2023/04/10 11:13:01;;;;;;;;;;;;;;;14.47;100.00;100312.88;7353876;19;19918;-63
2023/04/10 11:15:29;;;;;;;;;;;;;;;14.53;99.76;100312.09;7348832;19;19958;-63
2023/04/10 11:17:56;;;;;;;;;;;;;;;14.60;99.41;100303.41;7347493;19;19926;-63
2023/04/10 11:20:26;;;;;;;;;;;;;;;14.67;98.89;100312.22;7352173;19;19923;-64
2023/04/10 11:22:56;;;;;;;;;;;;;;;14.75;98.52;100315.53;7353079;19;20639;-63
2023/04/10 11:25:43;;;;;;;;;;;;;;;14.84;98.43;100308.25;7347784;19;19918;-64
2023/04/10 11:28:30;;;;;;;;;;;;;;;14.90;97.79;100307.50;7349203;19;19926;-64
2023/04/10 11:31:01;;;;;;;;;;;;;;;14.95;97.47;100305.91;7349473;19;19960;-64
2023/04/10 11:33:28;;;;;;;;;;;;;;;15.02;96.76;100313.91;7352133;19;20570;-64
2023/04/10 11:35:56;;;;;;;;;;;;;;;15.02;96.10;100319.19;7349367;19;20269;-63
2023/04/10 11:38:23;;;;;;;;;;;;;;;15.06;95.25;100315.13;7351440;19;19919;-64
2023/04/10 11:40:53;;;;;;;;;;;;;;;15.12;95.50;100319.66;7351909;19;19928;-65
2023/04/10 11:43:20;;;;;;;;;;;;;;;15.11;94.73;100307.44;7351733;19;20184;-63
2023/04/10 11:45:47;;;;;;;;;;;;;;;15.05;93.46;100300.25;7347198;19;19923;-62
2023/04/10 11:48:16;;;;;;;;;;;;;;;15.08;93.85;100301.72;7346865;19;19926;-64
2023/04/10 11:50:43;;;;;;;;;;;;;;;15.09;93.38;100300.66;7349948;19;20373;-62
2023/04/10 11:53:13;;;;;;;;;;;;;;;15.12;93.94;100292.34;7348382;19;19927;-63
2023/04/10 11:55:40;;;;;;;;;;;;;;;15.13;93.16;100286.03;7346727;19;19922;-63
2023/04/10 11:58:11;;;;;;;;;;;;;;;15.18;93.14;100278.31;7351826;19;20448;-64
2023/04/10 12:00:38;;;;;;;;;;;;;;;15.25;92.83;100273.84;7352096;19;20277;-63
2023/04/10 12:03:05;;;;;;;;;;;;;;;15.33;92.42;100273.69;7348642;19;20014;-63
2023/04/10 12:05:44;;;;;;;;;;;;;;;15.44;91.85;100267.81;7347741;19;19914;-63
2023/04/10 12:08:12;;;;;;;;;;;;;;;15.47;90.91;100279.88;7351763;19;20022;-64
2023/04/10 12:10:42;;;;;;;;;;;;;;;15.60;90.85;100259.53;7354152;19;20558;-62
2023/04/10 12:13:23;;;;;;;;;;;;;;;15.70;89.78;100272.41;7357906;19;19990;-63
2023/04/10 12:15:50;;;;;;;;;;;;;;;15.75;88.42;100257.53;7353321;19;19926;-63
2023/04/10 12:18:17;;;;;;;;;;;;;;;15.80;88.08;100267.56;7355065;19;20391;-63
2023/04/10 12:20:45;;;;;;;;;;;;;;;15.89;88.22;100266.38;7358241;19;20257;-62
2023/04/10 12:23:12;;;;;;;;;;;;;;;16.04;88.16;100253.75;7359917;19;20569;-62
2023/04/10 12:25:40;;;;;;;;;;;;;;;16.15;86.91;100249.66;7353855;19;19918;-63
2023/04/10 12:28:07;;;;;;;;;;;;;;;16.23;85.45;100262.72;7356261;19;19925;-63
2023/04/10 12:30:35;;;;;;;;;;;;;;;16.30;84.08;100260.09;7356402;19;19958;-63
2023/04/10 12:33:04;;;;;;;;;;;;;;;16.31;83.34;100259.84;7355311;19;19919;-65
2023/04/10 12:35:35;;;;;;;;;;;;;;;16.28;83.58;100284.19;7356156;19;20529;-63
2023/04/10 12:38:02;;;;;;;;;;;;;;;16.21;82.81;100318.66;7354973;19;19923;-63